Time;durP1;ratioP1;P1;durP2;ratioP2;P2;SDS_P1;SDS_P2;PMS_P1;PMS_P2;Temp;Humidity;BMP_temperature;BMP_pressure;BME280_temperature;BME280_humidity;BME280_pressure;Samples;Min_cycle;Max_cycle;Signal;HPM_P1;HPM_P2
2022/06/13 00:01:48;;;;;;;25.75;10.55;;;19.00;99.90;;;19.38;77.08;101950.97;5113541;28;20067;-60
2022/06/13 00:04:17;;;;;;;32.63;10.05;;;18.90;99.90;;;18.77;77.25;101845.09;5113936;28;20044;-60
2022/06/13 00:06:45;;;;;;;27.42;10.45;;;18.80;99.90;;;19.30;77.34;101950.25;5113528;28;20039;-60
2022/06/13 00:09:14;;;;;;;27.10;9.95;;;18.80;99.90;;;19.29;77.83;101945.78;5113719;28;20063;-60
2022/06/13 00:11:42;;;;;;;25.38;10.20;;;18.80;99.90;;;19.29;78.39;101944.00;5113451;28;20460;-60
2022/06/13 00:14:12;;;;;;;31.52;10.55;;;18.70;99.90;;;19.25;78.28;101953.03;5113462;28;20142;-60
2022/06/13 00:16:41;;;;;;;;;;;18.80;99.90;;;19.36;77.73;101953.69;5113839;28;20057;-60
2022/06/13 00:19:09;;;;;;;24.20;10.23;;;18.90;99.90;;;19.41;77.58;101940.19;5113435;28;19980;-60
2022/06/13 00:21:38;;;;;;;28.23;10.15;;;19.00;99.90;;;19.51;76.92;101941.75;5113236;28;20036;-60
2022/06/13 00:24:08;;;;;;;26.92;10.00;;;19.10;99.90;;;19.56;76.72;101946.06;5113169;28;20047;-60
2022/06/13 00:26:38;;;;;;;27.95;10.13;;;19.10;99.90;;;19.54;76.73;101947.91;5113273;28;20058;-60
2022/06/13 00:29:07;;;;;;;33.88;9.95;;;19.10;99.90;;;19.51;77.38;101949.78;5113505;28;20051;-60
2022/06/13 00:31:37;;;;;;;29.70;11.90;;;19.00;99.90;;;19.45;77.86;101939.19;5113499;28;20125;-60
2022/06/13 00:34:05;;;;;;;25.80;11.23;;;19.00;99.90;;;19.46;78.07;101936.47;5113502;28;20112;-60
2022/06/13 00:36:33;;;;;;;32.67;11.15;;;19.00;99.90;;;19.44;78.43;101937.41;5113068;28;20047;-60
2022/06/13 00:39:02;;;;;;;30.33;11.90;;;18.90;99.90;;;19.47;78.48;101940.03;5113064;28;20040;-60
2022/06/13 00:41:33;;;;;;;30.15;11.70;;;19.00;99.90;;;19.45;78.43;101942.75;5113412;28;20122;-60
2022/06/13 00:44:02;;;;;;;31.02;12.52;;;19.00;99.90;;;19.40;78.59;101951.81;5113044;28;20640;-60
2022/06/13 00:46:34;;;;;;;27.92;12.75;;;19.00;99.90;;;18.79;78.57;101826.28;5113359;28;20027;-60
2022/06/13 00:49:09;;;;;;;33.83;11.85;;;18.90;99.90;;;19.46;78.82;101940.94;5113134;28;20051;-60
2022/06/13 00:51:43;;;;;;;32.55;12.50;;;18.90;99.90;;;19.31;78.90;101933.22;5112255;28;20505;-60
2022/06/13 00:54:14;;;;;;;37.90;13.60;;;18.80;99.90;;;19.23;79.32;101937.88;5113049;28;20078;-60
2022/06/13 00:56:42;;;;;;;;;;;18.80;99.90;;;19.27;79.15;101928.84;5113772;28;20074;-60
2022/06/13 00:59:17;;;;;;;36.25;13.23;;;18.80;99.90;;;19.24;79.28;101926.25;5113362;28;19920;-60
2022/06/13 01:01:46;;;;;;;35.63;13.50;;;18.80;99.90;;;19.27;79.13;101931.53;5113291;28;20058;-60
2022/06/13 01:04:16;;;;;;;33.08;12.23;;;18.80;99.90;;;19.32;79.19;101927.84;5112777;28;20063;-60
2022/06/13 01:06:48;;;;;;;37.75;13.50;;;18.80;99.90;;;19.26;79.29;101937.84;5112907;28;20062;-60
2022/06/13 01:11:16;;;;;;;35.45;14.10;;;18.80;99.90;;;19.19;80.25;101931.72;5113128;28;20043;-60
2022/06/13 01:12:09;;;;;;;41.92;13.75;;;18.70;99.90;;;19.14;79.85;101933.63;5112769;28;20075;-60
2022/06/13 01:15:01;;;;;;;35.78;12.27;;;18.70;99.90;;;19.22;79.74;101928.94;5112799;28;20055;-60
2022/06/13 01:17:49;;;;;;;37.97;13.35;;;18.70;99.90;;;19.21;79.56;101927.19;5113370;28;20051;-60
2022/06/13 01:20:51;;;;;;;44.90;14.88;;;18.70;99.90;;;19.10;80.25;101928.34;5112793;28;20070;-60
2022/06/13 01:24:01;;;;;;;37.55;13.77;;;18.60;99.90;;;19.32;79.66;101921.56;5112948;28;20044;-60
2022/06/13 01:27:01;;;;;;;35.57;12.53;;;18.80;99.90;;;19.27;79.70;101936.91;5112487;28;20064;-60
2022/06/13 01:30:00;;;;;;;30.85;12.38;;;18.80;99.90;;;19.24;79.62;101940.53;5112469;28;20048;-60
2022/06/13 01:32:51;;;;;;;31.38;11.73;;;18.80;99.90;;;19.16;80.86;101934.47;5112422;28;20051;-60
2022/06/13 01:35:50;;;;;;;38.60;12.77;;;18.70;99.90;;;19.25;80.18;101936.94;5112619;28;20466;-60
2022/06/13 01:38:36;;;;;;;33.60;10.95;;;18.80;99.90;;;19.04;79.42;101934.75;5107371;28;20079;-60
2022/06/13 01:41:12;;;;;;;28.65;10.93;;;18.60;99.90;;;18.81;79.83;101935.22;5112601;28;20411;-60
2022/06/13 01:43:51;;;;;;;34.33;12.82;;;18.40;99.90;;;18.97;79.46;101941.13;5112225;28;20039;-60
2022/06/13 01:46:32;;;;;;;28.30;11.65;;;18.50;99.90;;;19.02;78.59;101941.06;5112515;28;20146;-60
2022/06/13 01:49:13;;;;;;;30.48;11.02;;;18.50;99.90;;;19.01;78.66;101941.97;5112559;28;20043;-60
2022/06/13 01:51:53;;;;;;;31.02;10.93;;;18.50;99.90;;;18.99;79.09;101936.63;5112112;28;20116;-60
2022/06/13 01:54:31;;;;;;;38.47;12.25;;;18.50;99.90;;;19.04;79.26;101933.84;5112114;28;20097;-60
2022/06/13 01:57:16;;;;;;;32.03;10.80;;;18.50;99.90;;;18.99;78.94;101907.13;5112564;28;20391;-60
2022/06/13 01:59:54;;;;;;;30.48;9.82;;;18.70;99.90;;;19.23;78.83;101940.56;5112011;28;20070;-60
2022/06/13 02:02:31;;;;;;;29.77;10.80;;;18.70;99.90;;;19.29;78.75;101935.97;5095076;28;20043;-60
2022/06/13 02:05:08;;;;;;;30.58;10.95;;;18.80;99.90;;;19.31;78.59;101941.28;5116207;28;20438;-60
2022/06/13 02:07:43;;;;;;;27.45;10.55;;;18.80;99.90;;;19.37;78.83;101939.38;5116288;28;20082;-60
2022/06/13 02:10:35;;;;;;;31.40;11.63;;;18.90;99.90;;;19.42;78.55;101942.81;5116199;28;20467;-60
2022/06/13 02:13:08;;;;;;;35.30;11.52;;;18.90;99.90;;;19.27;78.27;101924.38;5115911;28;20067;-60
2022/06/13 02:15:41;;;;;;;31.77;11.40;;;18.90;99.90;;;19.36;77.98;101923.28;5075221;28;20124;-60
2022/06/13 02:18:15;;;;;;;34.75;11.45;;;19.00;99.90;;;19.51;77.40;101942.59;5073964;28;20071;-60
2022/06/13 02:20:50;;;;;;;27.48;10.48;;;19.10;99.90;;;19.54;76.68;101947.03;5075513;28;20044;-60
2022/06/13 02:23:25;;;;;;;24.90;10.32;;;19.10;99.90;;;19.35;77.22;101934.97;5075151;28;20488;-60
2022/06/13 02:26:00;;;;;;;25.98;10.27;;;19.00;99.90;;;19.39;77.18;101944.72;5075258;28;20094;-60
2022/06/13 02:28:35;;;;;;;25.52;9.60;;;19.00;99.90;;;19.22;77.06;101944.19;5075338;28;20056;-60
2022/06/13 02:31:09;;;;;;;28.15;9.50;;;18.80;99.90;;;19.21;77.63;101947.78;5074768;28;20044;-60
2022/06/13 02:33:41;;;;;;;23.23;8.80;;;18.70;99.90;;;19.13;77.55;101947.94;5074858;28;20045;-60
2022/06/13 02:36:17;;;;;;;26.30;9.00;;;18.60;99.90;;;19.09;76.95;101948.03;5074892;28;20072;-60
2022/06/13 02:38:52;;;;;;;22.00;8.02;;;18.60;99.90;;;18.88;74.73;101934.19;5074977;28;20099;-60
2022/06/13 02:41:24;;;;;;;21.75;7.85;;;18.50;99.90;;;18.77;73.95;101940.69;5074599;28;20053;-60
2022/06/13 02:43:58;;;;;;;17.55;7.20;;;18.30;99.90;;;18.54;71.81;101934.94;5074538;28;20139;-60
2022/06/13 02:46:33;;;;;;;21.08;6.70;;;18.10;99.90;;;18.43;70.08;101943.16;5074618;28;20064;-60
2022/06/13 02:49:08;;;;;;;15.65;6.45;;;18.00;99.90;;;18.39;68.85;101945.91;5074783;28;20086;-60
2022/06/13 02:51:43;;;;;;;14.27;6.28;;;17.90;99.90;;;18.17;67.39;101947.22;5074359;28;20048;-60
2022/06/13 02:54:20;;;;;;;15.80;6.13;;;17.80;99.90;;;18.26;67.25;101945.25;5074395;28;20075;-60
2022/06/13 02:57:24;;;;;;;15.02;6.80;;;17.80;99.90;;;18.23;66.53;101947.13;5073320;28;20139;-60
2022/06/13 03:00:07;;;;;;;17.00;6.40;;;17.80;99.90;;;18.04;66.76;101943.88;5074540;28;20044;-60
2022/06/13 03:02:45;;;;;;;13.40;6.45;;;17.70;99.90;;;17.97;67.03;101950.25;5074609;28;20064;-60
2022/06/13 03:05:33;;;;;;;17.40;6.60;;;17.50;99.90;;;18.07;65.76;101948.28;5074238;28;20040;-60
2022/06/13 03:08:22;;;;;;;14.02;5.88;;;17.60;99.90;;;17.94;65.67;101950.31;5074187;28;20061;-60
2022/06/13 03:11:33;;;;;;;13.93;5.95;;;17.50;99.90;;;17.96;66.26;101948.50;5074405;28;20098;-60
2022/06/13 03:14:35;;;;;;;10.82;6.07;;;17.50;99.90;;;17.83;66.32;101952.28;5083520;28;20100;-60
2022/06/13 03:17:06;;;;;;;14.88;5.80;;;17.50;99.90;;;17.79;67.26;101954.13;5114640;28;20036;-60
2022/06/13 03:19:40;;;;;;;15.65;5.88;;;17.40;99.90;;;17.85;66.90;101962.06;5114616;28;20430;-60
2022/06/13 03:22:15;;;;;;;12.95;6.07;;;17.40;99.90;;;17.83;67.50;101962.97;5114627;28;20078;-60
2022/06/13 03:24:54;;;;;;;17.75;6.18;;;17.40;99.90;;;17.80;67.57;101946.97;5114503;28;20085;-60
2022/06/13 03:27:40;;;;;;;16.58;6.70;;;17.40;99.90;;;17.87;68.29;101960.25;5114816;28;20434;-60
2022/06/13 03:30:13;;;;;;;17.88;6.70;;;17.50;99.90;;;18.01;68.96;101960.91;5114490;28;20427;-60
2022/06/13 03:33:39;;;;;;;15.68;6.53;;;17.50;99.90;;;17.92;68.87;101947.66;5115058;28;20101;-60
2022/06/13 03:35:38;;;;;;;16.88;6.32;;;17.60;99.90;;;18.07;68.39;101973.28;5114657;28;20468;-60
2022/06/13 03:38:13;;;;;;;19.10;7.18;;;17.60;99.90;;;18.23;67.92;101977.47;5114784;28;20051;-60
2022/06/13 03:40:49;;;;;;;14.02;6.32;;;17.80;99.90;;;18.26;67.04;101971.16;5096368;28;20138;-60
2022/06/13 03:43:22;;;;;;;17.15;6.25;;;17.80;99.90;;;18.21;68.02;101967.69;5096425;28;20047;-60
2022/06/13 03:45:58;;;;;;;15.30;6.20;;;17.80;99.90;;;18.13;67.02;101949.06;5114338;28;20044;-60
2022/06/13 03:48:35;;;;;;;16.35;5.80;;;17.90;99.90;;;18.06;66.90;101976.00;5114845;28;20061;-60
2022/06/13 03:51:10;;;;;;;11.52;5.63;;;17.70;99.90;;;17.99;66.23;101977.88;5115090;28;20092;-60
2022/06/13 03:53:45;;;;;;;15.40;6.07;;;17.60;99.90;;;17.86;66.28;101979.00;5114588;28;20071;-60
2022/06/13 03:56:20;;;;;;;15.30;6.10;;;17.50;99.90;;;18.03;66.33;101987.63;5114230;28;20047;-60
2022/06/13 03:58:54;;;;;;;15.45;6.00;;;17.50;99.90;;;17.68;66.52;101966.81;5114446;28;20052;-60
2022/06/13 04:01:28;;;;;;;16.00;5.75;;;17.40;99.90;;;17.81;67.23;101983.53;5114147;28;20067;-60
2022/06/13 04:04:00;;;;;;;11.40;5.75;;;17.50;99.90;;;17.83;66.55;101987.97;5114285;28;20538;-60
2022/06/13 04:06:36;;;;;;;13.32;6.00;;;17.40;99.90;;;17.96;66.16;101994.03;5096109;28;20047;-60
2022/06/13 04:09:09;;;;;;;13.00;5.30;;;17.50;99.90;;;17.97;65.81;102023.44;5114321;28;20104;-60
2022/06/13 04:11:56;;;;;;;12.02;5.47;;;17.60;99.90;;;17.76;66.31;101988.09;5114635;28;20071;-60
2022/06/13 04:14:47;;;;;;;15.70;5.47;;;17.40;99.90;;;17.74;66.66;101997.94;5114061;28;20427;-60
2022/06/13 04:17:25;;;;;;;17.02;5.82;;;17.40;99.90;;;17.60;67.55;101987.44;5113758;28;20048;-60
2022/06/13 04:20:00;;;;;;;15.07;5.32;;;17.30;99.90;;;17.80;67.32;101997.84;5113892;28;20318;-60
2022/06/13 04:22:40;;;;;;;13.52;5.68;;;17.30;99.90;;;17.41;67.45;101926.19;5113809;28;20404;-60
2022/06/13 04:25:22;;;;;;;15.90;5.60;;;17.40;99.90;;;17.90;66.87;101999.47;5113388;28;20047;-60
2022/06/13 04:28:01;;;;;;;17.92;6.18;;;17.50;99.90;;;17.81;67.98;102002.28;5113809;28;20066;-60
2022/06/13 04:30:32;;;;;;;14.93;5.53;;;17.40;99.90;;;17.92;67.57;101995.84;5113317;28;20074;-60
2022/06/13 04:33:10;;;;;;;13.10;5.57;;;17.50;99.90;;;17.98;67.53;101997.56;5113618;28;20043;-60
2022/06/13 04:35:40;;;;;;;12.73;5.78;;;17.60;99.90;;;17.83;68.26;102003.13;5113784;28;20059;-60
2022/06/13 04:38:13;;;;;;;13.23;4.80;;;17.50;99.90;;;17.57;67.69;101990.19;5113523;28;20369;-60
2022/06/13 04:40:45;;;;;;;15.25;5.50;;;17.30;99.90;;;17.39;68.16;102005.56;5113072;28;20047;-60
2022/06/13 04:43:18;;;;;;;15.45;5.47;;;17.10;99.90;;;17.60;67.40;101994.59;5113090;28;20108;-60
2022/06/13 04:45:51;;;;;;;17.65;5.28;;;17.20;99.90;;;17.52;67.33;102007.19;5113155;28;20391;-60
2022/06/13 04:48:21;;;;;;;11.43;5.28;;;17.10;99.90;;;17.49;67.01;102000.13;5113011;28;20067;-60
2022/06/13 04:50:53;;;;;;;9.23;4.53;;;17.10;99.90;;;17.58;67.17;102004.41;5113426;28;20153;-60
2022/06/13 04:53:25;;;;;;;11.90;5.47;;;17.20;99.90;;;17.60;67.01;102016.00;5094713;28;20044;-60
2022/06/13 04:55:55;;;;;;;12.57;4.97;;;17.20;99.90;;;17.40;68.36;102010.88;5113326;28;20116;-60
2022/06/13 04:58:28;;;;;;;16.05;5.10;;;17.10;99.90;;;17.35;68.43;102010.09;5112656;28;20452;-60
2022/06/13 05:01:02;;;;;;;17.20;5.32;;;17.00;99.90;;;17.31;68.57;102010.13;5094526;28;20469;-60
2022/06/13 05:03:36;;;;;;;16.63;5.38;;;16.90;99.90;;;17.22;69.27;102010.28;5112696;28;20236;-60
2022/06/13 05:06:08;;;;;;;11.68;5.00;;;16.90;99.90;;;17.18;70.37;102022.81;5112589;28;20153;-60
2022/06/13 05:08:41;;;;;;;16.55;5.18;;;16.80;99.90;;;17.16;70.18;102027.28;5112599;28;20047;-60
2022/06/13 05:11:22;;;;;;;13.48;5.50;;;16.80;99.90;;;17.12;69.98;102034.47;5112581;28;20067;-60
2022/06/13 05:13:58;;;;;;;17.00;4.85;;;16.80;99.90;;;16.95;69.88;102031.13;5112852;28;20113;-60
2022/06/13 05:16:42;;;;;;;12.55;5.40;;;16.70;99.90;;;16.94;70.07;102034.69;5094426;28;20557;-60
2022/06/13 05:19:46;;;;;;;16.73;5.25;;;16.60;99.90;;;17.18;69.66;102036.16;5112678;28;20040;-60
2022/06/13 05:22:34;;;;;;;13.73;5.13;;;16.70;99.90;;;17.09;69.42;102036.31;5112306;28;20131;-60
2022/06/13 05:25:29;;;;;;;13.27;5.28;;;16.70;99.90;;;17.43;68.73;102044.75;5112524;28;20048;-60
2022/06/13 05:27:58;;;;;;;15.57;5.53;;;16.90;99.90;;;17.43;69.35;102056.34;5112356;28;20071;-60
2022/06/13 05:30:29;;;;;;;14.48;5.35;;;17.10;99.90;;;17.15;69.46;102053.13;5112302;28;20032;-61
2022/06/13 05:32:58;;;;;;;18.10;5.22;;;16.90;99.90;;;17.51;69.16;102061.63;5112289;28;20039;-60
2022/06/13 05:35:30;;;;;;;18.63;5.63;;;17.10;99.90;;;17.34;68.94;102058.25;5112499;28;20046;-60
2022/06/13 05:38:01;;;;;;;14.00;5.13;;;17.10;99.90;;;17.10;71.00;102067.47;5111899;28;20071;-60
2022/06/13 05:40:30;;;;;;;13.13;5.30;;;16.80;99.90;;;17.37;69.67;102063.56;5112203;28;20481;-60
2022/06/13 05:42:58;;;;;;;18.63;5.10;;;17.00;99.90;;;17.19;69.87;102067.34;5112644;28;20035;-60
2022/06/13 05:45:28;;;;;;;13.13;4.75;;;16.90;99.90;;;17.24;68.74;102060.16;5111925;28;20092;-60
2022/06/13 05:47:56;;;;;;;15.43;5.50;;;16.90;99.90;;;17.25;68.98;102074.44;5112154;28;20063;-60
2022/06/13 05:50:29;;;;;;;13.02;4.82;;;16.90;99.90;;;17.57;68.33;102081.16;5093769;28;20071;-60
2022/06/13 05:52:57;;;;;;;8.52;4.45;;;17.20;99.90;;;17.51;68.63;102081.25;5112005;28;20044;-60
2022/06/13 05:55:26;;;;;;;12.27;4.88;;;17.20;99.90;;;17.56;68.23;102075.81;5112008;28;20139;-60
2022/06/13 05:58:02;;;;;;;13.23;5.18;;;17.20;99.90;;;17.70;69.05;102084.53;5112430;28;20064;-60
2022/06/13 06:00:38;;;;;;;14.55;5.15;;;17.30;99.90;;;17.85;68.36;102089.66;5112349;28;20059;-60
2022/06/13 06:03:06;;;;;;;14.48;5.20;;;17.40;99.90;;;17.76;68.78;102087.13;5111878;28;20113;-60
2022/06/13 06:05:35;;;;;;;15.25;5.00;;;17.40;99.90;;;17.52;69.13;102074.97;5112212;28;20038;-60
2022/06/13 06:08:03;;;;;;;11.93;4.53;;;17.30;99.90;;;17.55;69.15;102084.75;5112325;28;20039;-60
2022/06/13 06:10:36;;;;;;;13.93;4.63;;;17.20;99.90;;;17.67;69.12;102096.16;5111885;28;20039;-60
2022/06/13 06:13:05;;;;;;;17.83;5.00;;;17.20;99.90;;;17.64;69.45;102092.66;5112082;28;20180;-60
2022/06/13 06:15:35;;;;;;;11.98;4.85;;;17.30;99.90;;;17.64;69.57;102100.69;5111852;28;20043;-60
2022/06/13 06:18:04;;;;;;;18.10;5.57;;;17.20;99.90;;;17.57;69.61;102105.25;5111914;28;20051;-60
2022/06/13 06:20:32;;;;;;;12.65;4.35;;;17.20;99.90;;;17.65;69.41;102099.78;5111905;28;20040;-60
2022/06/13 06:23:01;;;;;;;14.18;5.13;;;17.30;99.90;;;17.56;68.81;102122.19;5111885;28;20061;-60
2022/06/13 06:25:29;;;;;;;10.52;4.15;;;17.10;99.90;;;17.77;67.21;102116.53;5112032;28;20058;-60
2022/06/13 06:27:57;;;;;;;11.45;4.35;;;17.40;99.90;;;17.71;65.80;102115.75;5112308;28;20056;-60
2022/06/13 06:30:27;;;;;;;9.65;4.25;;;17.40;99.90;;;18.00;64.42;102116.22;5093756;28;20117;-60
2022/06/13 06:32:58;;;;;;;11.85;4.30;;;17.60;99.90;;;18.01;65.53;102120.66;5112081;28;20052;-60
2022/06/13 06:35:29;;;;;;;11.68;4.45;;;17.60;99.90;;;18.13;65.07;102112.44;5112165;28;20113;-60
2022/06/13 06:37:59;;;;;;;13.43;4.47;;;17.70;99.90;;;18.02;65.63;102109.06;5111855;28;20074;-60
2022/06/13 06:40:28;;;;;;;11.68;4.82;;;17.70;99.90;;;18.07;66.13;102117.91;5111870;28;20032;-60
2022/06/13 06:42:57;;;;;;;10.95;4.80;;;17.60;99.90;;;17.83;64.81;102112.88;5112393;28;20126;-60
2022/06/13 06:45:27;;;;;;;14.40;4.60;;;17.50;99.90;;;17.79;64.33;102112.06;5112007;28;20485;-60
2022/06/13 06:47:57;;;;;;;16.75;4.85;;;17.50;99.90;;;17.77;65.41;102112.97;5112107;28;20096;-59
2022/06/13 06:50:29;;;;;;;11.65;4.22;;;17.40;99.90;;;18.04;64.80;102126.84;5114600;28;20043;-60
2022/06/13 06:52:58;;;;;;;10.95;4.30;;;17.60;99.90;;;18.20;65.56;102127.50;5115428;28;20048;-60
2022/06/13 07:01:10;;;;;;;11.60;4.65;;;17.60;99.90;;;17.78;66.84;102130.81;5115282;28;20055;-60
2022/06/13 07:03:40;;;;;;;15.30;4.78;;;17.50;99.90;;;18.01;66.56;102134.94;5115935;28;20067;-60
2022/06/13 07:06:09;;;;;;;10.20;4.55;;;17.60;99.90;;;18.15;65.98;102137.44;5115464;28;20093;-60
2022/06/13 07:08:38;;;;;;;14.10;4.68;;;17.70;99.90;;;18.51;65.54;102144.91;5115499;28;20063;-60
2022/06/13 07:14:10;;;;;;;11.43;4.53;;;18.20;99.90;;;18.50;64.78;102137.78;5093286;28;20052;-60
2022/06/13 07:16:38;;;;;;;13.05;4.93;;;18.20;99.90;;;18.51;64.42;102142.22;5094541;28;20127;-60
2022/06/13 07:19:08;;;;;;;13.15;4.50;;;18.20;99.90;;;18.59;64.67;102142.97;5094725;28;20145;-60
2022/06/13 07:21:37;;;;;;;15.52;5.47;;;18.20;99.90;;;18.66;64.15;102152.69;5094344;28;20044;-60
2022/06/13 07:24:06;;;;;;;8.18;4.22;;;18.30;99.90;;;18.85;63.31;102159.47;5094555;28;20350;-60
2022/06/13 07:26:35;;;;;;;10.10;4.20;;;18.50;99.90;;;18.89;62.96;102161.19;5094628;28;20064;-60
2022/06/13 07:29:03;;;;;;;11.23;4.15;;;18.50;99.90;;;18.80;61.58;102166.75;5094237;28;20131;-60
2022/06/13 07:31:39;;;;;;;10.13;4.50;;;18.50;99.90;;;19.00;61.97;102157.44;5094484;28;20078;-60
2022/06/13 07:34:15;;;;;;;8.63;4.45;;;18.70;99.90;;;18.65;60.65;102158.97;5094091;28;20075;-60
2022/06/13 07:36:49;;;;;;;12.43;4.55;;;18.50;99.90;;;18.68;61.14;102161.56;5094101;28;20059;-60
2022/06/13 07:39:17;;;;;;;11.02;4.45;;;18.30;99.90;;;18.51;61.12;102155.63;5094281;28;20068;-60
2022/06/13 07:41:46;;;;;;;10.13;4.13;;;18.30;99.90;;;18.86;61.62;102177.34;5093877;28;20068;-60
2022/06/13 07:44:21;;;;;;;12.23;4.22;;;18.50;99.90;;;18.73;60.75;102181.16;5092868;28;20135;-60
2022/06/13 07:46:50;;;;;;;6.95;4.00;;;18.50;99.90;;;18.55;61.23;102180.56;5093736;28;20040;-60
2022/06/13 07:49:21;;;;;;;11.10;4.23;;;18.30;99.90;;;18.81;60.14;102178.34;5093749;28;20520;-60
2022/06/13 07:51:50;;;;;;;;;;;18.50;99.90;;;18.98;60.32;102188.78;5093994;28;20120;-60
2022/06/13 07:54:18;;;;;;;16.50;4.45;;;18.70;99.90;;;18.57;62.90;102190.38;5093925;28;19959;-60
2022/06/13 07:56:47;;;;;;;10.95;4.80;;;18.40;99.90;;;18.50;62.84;102198.53;5093574;28;20044;-60
2022/06/13 07:59:23;;;;;;;11.75;4.88;;;18.20;99.90;;;18.31;63.65;102197.88;5093667;28;20412;-60
2022/06/13 08:01:51;;;;;;;9.35;4.65;;;18.00;99.90;;;18.66;64.25;102200.06;5093453;28;20516;-60
2022/06/13 08:04:21;;;;;;;14.45;4.95;;;18.20;99.90;;;18.53;64.18;102199.38;5091981;28;20040;-60
2022/06/13 08:07:10;;;;;;;12.35;4.32;;;18.20;99.90;;;18.44;62.61;102177.19;5093581;28;20058;-60
2022/06/13 08:09:39;;;;;;;17.95;4.65;;;18.20;99.90;;;18.46;62.80;102203.06;5093198;28;20369;-60
2022/06/13 08:12:10;;;;;;;11.32;4.63;;;18.20;99.90;;;18.78;63.89;102211.47;5093671;28;20055;-60
2022/06/13 08:14:39;;;;;;;10.18;4.20;;;18.40;99.90;;;18.86;62.48;102201.50;5106164;28;20055;-60
2022/06/13 08:17:07;;;;;;;10.10;4.15;;;18.50;99.90;;;18.56;62.38;102214.53;5113433;28;20049;-60
2022/06/13 08:19:37;;;;;;;9.50;4.45;;;18.30;99.90;;;18.57;62.48;102222.53;5113309;28;20051;-60
2022/06/13 08:22:05;;;;;;;14.63;5.17;;;18.30;99.90;;;18.38;63.93;102223.69;5113431;28;20048;-60
2022/06/13 08:24:34;;;;;;;9.68;3.88;;;18.10;99.90;;;18.14;63.94;102220.47;5113590;28;20154;-60
2022/06/13 08:27:03;;;;;;;13.02;4.97;;;17.90;99.90;;;18.29;64.64;102231.84;5113145;28;20085;-60
2022/06/13 08:29:31;;;;;;;10.40;4.43;;;17.90;99.90;;;18.43;63.98;102232.56;5095007;28;20457;-62
2022/06/13 08:32:01;;;;;;;11.93;4.30;;;18.00;99.90;;;18.56;63.69;102226.09;5113632;28;20043;-60
2022/06/13 08:34:30;;;;;;;12.63;4.38;;;18.20;99.90;;;18.64;63.73;102231.38;5113455;28;20370;-60
2022/06/13 08:37:00;;;;;;;12.73;4.85;;;18.30;99.90;;;18.71;64.25;102231.25;5113634;28;20047;-60
2022/06/13 08:39:28;;;;;;;18.13;4.90;;;18.40;99.90;;;18.83;63.92;102235.53;5113085;28;20053;-60
2022/06/13 08:42:01;;;;;;;13.25;5.30;;;18.50;99.90;;;18.60;64.42;102235.88;5113460;28;20052;-60
2022/06/13 08:44:48;;;;;;;7.95;4.25;;;18.30;99.90;;;18.35;64.21;102241.59;5113040;28;20071;-60
2022/06/13 08:47:27;;;;;;;13.68;4.82;;;18.10;99.90;;;18.51;63.25;102248.53;5113252;28;20052;-60
2022/06/13 08:50:17;;;;;;;9.57;4.55;;;18.10;99.90;;;18.97;63.24;102243.34;5112866;28;20122;-60
2022/06/13 08:52:53;;;;;;;8.90;4.40;;;18.50;99.90;;;19.04;60.12;102236.94;5112756;28;20058;-60
2022/06/13 08:55:32;;;;;;;11.35;4.43;;;18.80;99.90;;;19.12;59.36;102251.13;5112773;28;20047;-60
2022/06/13 08:58:13;;;;;;;11.68;4.07;;;18.80;99.90;;;19.04;60.17;102258.41;5094349;28;20044;-60
2022/06/13 09:00:49;;;;;;;10.15;4.35;;;18.70;99.90;;;19.04;60.22;102251.25;5094702;28;20067;-60
2022/06/13 09:03:24;;;;;;;10.43;4.40;;;18.70;99.90;;;18.89;60.78;102263.09;5112946;28;20051;-60
2022/06/13 09:05:59;;;;;;;10.65;4.20;;;18.60;99.90;;;18.72;61.62;102254.44;5112569;28;20046;-60
2022/06/13 09:08:39;;;;;;;14.15;4.57;;;18.50;99.90;;;18.25;64.25;102275.69;5112534;28;20044;-60
2022/06/13 09:11:18;;;;;;;15.98;4.85;;;18.00;99.90;;;17.95;65.25;102284.09;5112404;28;20067;-60
2022/06/13 09:13:53;;;;;;;13.23;4.82;;;17.70;99.90;;;17.74;65.04;102282.56;5112173;28;20047;-60
2022/06/13 09:16:29;;;;;;;13.80;4.30;;;17.50;99.90;;;17.79;65.51;102256.59;5112712;28;20100;-60
2022/06/13 09:19:04;;;;;;;12.30;4.70;;;17.50;99.90;;;18.10;64.39;102281.22;5112485;28;20070;-60
2022/06/13 09:21:40;;;;;;;13.75;4.78;;;17.70;99.90;;;18.29;64.62;102284.56;5112391;28;20043;-62
2022/06/13 09:24:16;;;;;;;9.80;4.43;;;17.90;99.90;;;18.40;64.21;102290.66;5112631;28;20077;-60
2022/06/13 09:26:49;;;;;;;11.88;4.68;;;18.00;99.90;;;18.39;63.36;102295.13;5112833;28;20052;-60
2022/06/13 09:29:26;;;;;;;11.75;3.75;;;18.00;99.90;;;18.77;63.39;102289.25;5112318;28;20127;-60
2022/06/13 09:32:00;;;;;;;11.02;4.78;;;18.30;99.90;;;18.97;61.22;102271.03;5112317;28;20513;-63
2022/06/13 09:34:39;;;;;;;9.70;4.40;;;18.60;99.90;;;19.15;61.17;102292.19;5112283;28;20126;-61
2022/06/13 09:37:13;;;;;;;7.90;4.05;;;18.80;99.90;;;18.94;59.80;102281.81;5112595;28;20074;-60
2022/06/13 09:39:43;;;;;;;8.77;4.32;;;18.70;99.90;;;18.88;58.97;102288.16;5112195;28;20047;-61
2022/06/13 09:42:38;;;;;;;11.65;4.07;;;18.60;99.90;;;18.50;59.90;102290.53;5112316;28;20048;-60
2022/06/13 09:45:32;;;;;;;11.93;4.63;;;18.30;99.90;;;18.72;58.10;102300.03;5112285;28;20048;-60
2022/06/13 09:48:12;;;;;;;11.15;3.70;;;18.40;99.90;;;18.80;55.06;102295.44;5112246;28;20051;-60
2022/06/13 09:50:45;;;;;;;;;;;18.50;99.90;;;19.08;55.57;102316.47;5113036;28;20051;-60
2022/06/13 09:53:22;;;;;;;11.82;4.43;;;18.80;99.90;;;19.06;55.11;102303.09;5112357;28;19965;-60
2022/06/13 09:56:02;;;;;;;9.77;4.10;;;18.80;99.90;;;19.30;56.11;102309.84;5112346;28;20108;-60
2022/06/13 09:58:46;;;;;;;11.18;4.60;;;18.90;99.90;;;19.58;55.48;102309.34;5112623;28;20055;-61
2022/06/13 10:01:23;;;;;;;10.80;4.22;;;19.30;99.90;;;19.37;55.06;102331.22;5112433;28;20090;-60
2022/06/13 10:04:04;;;;;;;11.05;4.43;;;19.10;99.90;;;19.46;55.42;102320.31;5094517;28;20051;-60
2022/06/13 10:06:40;;;;;;;;;;;19.20;99.90;;;19.56;54.69;102318.34;5095222;28;20051;-60
2022/06/13 10:09:28;;;;;;;11.93;4.28;;;19.30;99.90;;;19.30;52.05;102317.88;5112339;28;19966;-60
2022/06/13 10:12:06;;;;;;;15.95;4.60;;;19.10;99.90;;;19.49;52.26;102330.09;5112274;28;20043;-60
2022/06/13 10:14:50;;;;;;;8.85;4.45;;;19.20;99.90;;;19.12;52.37;102327.13;5112572;28;20423;-60
2022/06/13 10:17:49;;;;;;;8.90;3.90;;;18.80;99.90;;;19.04;53.13;102323.69;5112757;28;20067;-60
2022/06/13 10:20:27;;;;;;;16.73;4.57;;;18.80;99.90;;;19.14;54.02;102327.09;5112229;28;20046;-62
2022/06/13 10:23:06;;;;;;;12.07;5.10;;;18.70;99.90;;;19.32;54.03;102325.00;5112604;28;20060;-60
2022/06/13 10:25:55;;;;;;;15.02;4.68;;;18.90;99.90;;;19.37;54.75;102324.94;5116056;28;20393;-60
2022/06/13 10:29:00;;;;;;;13.57;5.07;;;19.10;99.90;;;19.37;55.97;102333.00;5097387;28;20067;-60
2022/06/13 10:31:49;;;;;;;14.85;4.60;;;19.00;99.90;;;19.12;56.62;102329.81;5115761;28;20125;-60
2022/06/13 10:34:28;;;;;;;10.15;3.90;;;18.90;99.90;;;18.78;55.88;102216.81;5116063;28;20097;-60
2022/06/13 10:37:10;;;;;;;14.48;4.47;;;19.00;99.90;;;19.13;54.94;102346.78;5115677;28;20180;-60
2022/06/13 10:39:39;;;;;;;13.63;4.63;;;18.90;99.90;;;19.31;56.63;102330.38;5097893;28;20055;-60
2022/06/13 10:42:11;;;;;;;12.65;4.30;;;18.90;99.90;;;19.06;53.50;102329.00;5115439;28;20036;-60
2022/06/13 10:44:42;;;;;;;12.05;5.32;;;18.80;99.90;;;19.22;54.01;102330.53;5115433;28;20273;-60
2022/06/13 10:47:20;;;;;;;14.50;4.78;;;18.80;99.90;;;19.36;54.90;102334.78;5115306;28;20036;-61
2022/06/13 10:49:54;;;;;;;13.95;4.32;;;19.00;99.90;;;18.97;54.05;102331.84;5115362;28;20127;-60